Time;durP1;ratioP1;P1;durP2;ratioP2;P2;SDS_P1;SDS_P2;PMS_P1;PMS_P2;Temp;Humidity;BMP_temperature;BMP_pressure;BME280_temperature;BME280_humidity;BME280_pressure;Samples;Min_cycle;Max_cycle;Signal;HPM_P1;HPM_P2
2023/04/13 00:02:25;;;;;;;3.55;1.70;;;15.30;82.60;;;;;;5012796;28;20091;-61
2023/04/13 00:04:50;;;;;;;3.33;1.45;;;15.30;83.10;;;;;;5002337;28;20042;-62
2023/04/13 00:07:17;;;;;;;4.45;1.83;;;15.40;82.60;;;;;;4999716;28;20049;-61
2023/04/13 00:09:46;;;;;;;4.63;1.63;;;;;;;;;;4983558;28;20104;-61
2023/04/13 00:12:14;;;;;;;2.65;1.40;;;15.20;81.90;;;;;;5009071;28;20073;-62
2023/04/13 00:14:39;;;;;;;2.95;1.65;;;15.00;85.50;;;;;;5006971;28;20041;-61
2023/04/13 00:17:05;;;;;;;3.75;1.55;;;15.30;85.70;;;;;;5008470;28;20045;-61
2023/04/13 00:19:35;;;;;;;5.60;1.60;;;;;;;;;;5008534;28;20053;-62
2023/04/13 00:22:02;;;;;;;4.53;1.67;;;15.00;85.40;;;;;;4991165;28;20038;-62
2023/04/13 00:24:29;;;;;;;4.25;1.63;;;;;;;;;;5009833;28;20042;-61
2023/04/13 00:26:55;;;;;;;4.30;1.75;;;15.40;84.50;;;;;;5005052;28;20136;-62
2023/04/13 00:29:22;;;;;;;4.97;2.10;;;15.20;85.50;;;;;;5009811;28;20247;-62
2023/04/13 00:31:48;;;;;;;3.47;1.58;;;;;;;;;;5006608;28;20046;-62
2023/04/13 00:34:14;;;;;;;3.78;1.50;;;;;;;;;;4994480;28;20053;-61
2023/04/13 00:36:40;;;;;;;4.60;1.90;;;15.20;85.60;;;;;;5010732;28;20396;-62
2023/04/13 00:39:06;;;;;;;4.05;2.00;;;;;;;;;;5012836;28;20042;-62
2023/04/13 00:41:32;;;;;;;5.18;1.92;;;15.30;85.10;;;;;;5013382;28;20045;-61
2023/04/13 00:43:58;;;;;;;6.68;1.98;;;;;;;;;;5002733;28;20045;-63
2023/04/13 00:46:23;;;;;;;4.53;1.70;;;15.20;85.40;;;;;;5005276;28;20041;-61
2023/04/13 00:48:50;;;;;;;4.15;1.90;;;;;;;;;;5013801;28;20116;-62
2023/04/13 00:51:16;;;;;;;5.60;1.88;;;;;;;;;;5013073;28;20107;-61
2023/04/13 00:53:42;;;;;;;4.20;1.70;;;15.20;83.10;;;;;;5015723;28;20041;-62
2023/04/13 00:56:08;;;;;;;4.90;2.15;;;15.20;83.00;;;;;;5011181;28;20096;-62
2023/04/13 00:58:34;;;;;;;3.35;1.77;;;;;;;;;;5013473;28;20050;-61
2023/04/13 01:01:00;;;;;;;3.63;1.80;;;;;;;;;;5008773;28;20116;-62
2023/04/13 01:03:26;;;;;;;3.88;1.80;;;15.20;85.30;;;;;;5014090;28;20076;-62
2023/04/13 01:06:23;;;;;;;4.53;1.85;;;;;;;;;;5010080;28;20064;-62
2023/04/13 01:09:10;;;;;;;4.03;1.90;;;15.30;82.70;;;;;;4999011;28;20065;-61
2023/04/13 01:11:38;;;;;;;4.25;1.70;;;;;;;;;;4981624;28;20065;-62
2023/04/13 01:14:33;;;;;;;3.78;1.80;;;15.40;82.80;;;;;;4992846;28;20129;-61
2023/04/13 01:17:01;;;;;;;4.07;2.03;;;;;;;;;;5008028;28;20155;-62
2023/04/13 01:19:33;;;;;;;3.70;1.80;;;;;;;;;;5008545;28;20045;-63
2023/04/13 01:22:00;;;;;;;2.97;1.70;;;;;;;;;;5011786;28;20129;-61
2023/04/13 01:24:32;;;;;;;4.15;2.17;;;;;;;;;;5012825;28;20076;-61
2023/04/13 01:27:12;;;;;;;7.22;2.30;;;15.30;82.20;;;;;;4992231;28;20054;-62
2023/04/13 01:29:38;;;;;;;5.30;2.15;;;;;;;;;;5013262;28;20440;-62
2023/04/13 01:32:05;;;;;;;3.65;1.83;;;15.20;85.40;;;;;;4993126;28;20073;-62
2023/04/13 01:34:31;;;;;;;4.70;2.30;;;;;;;;;;4969381;28;20071;-62
2023/04/13 01:36:58;;;;;;;3.97;2.08;;;;;;;;;;5011054;28;20125;-62
2023/04/13 01:39:24;;;;;;;4.80;2.00;;;14.90;85.10;;;;;;5000577;28;20085;-63
2023/04/13 01:41:50;;;;;;;5.00;2.00;;;15.10;85.10;;;;;;5013418;28;20050;-63
2023/04/13 01:44:16;;;;;;;5.80;2.42;;;;;;;;;;5012907;28;20124;-63
2023/04/13 01:46:45;;;;;;;5.65;2.30;;;15.30;81.70;;;;;;5011333;28;20410;-62
2023/04/13 01:49:11;;;;;;;4.30;1.95;;;15.10;85.10;;;;;;5008769;28;20050;-62
2023/04/13 01:51:37;;;;;;;4.32;1.98;;;15.10;85.30;;;;;;4991696;28;20054;-62
2023/04/13 01:54:09;;;;;;;5.63;2.20;;;;;;;;;;5010196;28;20128;-62
2023/04/13 01:56:36;;;;;;;3.88;2.00;;;;;;;;;;4985600;28;20108;-61
2023/04/13 01:59:02;;;;;;;4.07;2.05;;;15.20;85.50;;;;;;5002814;28;20131;-62
2023/04/13 02:01:28;;;;;;;3.38;1.85;;;;;;;;;;5012326;28;20045;-61
2023/04/13 02:03:54;;;;;;;3.95;1.73;;;;;;;;;;5011430;28;20068;-62
2023/04/13 02:06:20;;;;;;;3.65;1.80;;;;;;;;;;5010448;28;20518;-62
2023/04/13 02:08:46;;;;;;;4.78;2.13;;;14.90;85.90;;;;;;5006128;28;20046;-62
2023/04/13 02:11:12;;;;;;;4.03;1.80;;;;;;;;;;4996605;28;20385;-62
2023/04/13 02:13:38;;;;;;;4.43;1.98;;;;;;;;;;5007780;28;20053;-62
2023/04/13 02:16:05;;;;;;;3.65;1.73;;;14.80;84.30;;;;;;5004687;28;20057;-65
2023/04/13 02:18:32;;;;;;;3.83;1.75;;;14.80;85.40;;;;;;5010039;28;20128;-63
2023/04/13 02:21:07;;;;;;;4.13;1.70;;;14.80;81.60;;;;;;5012417;28;20034;-64
2023/04/13 02:23:33;;;;;;;2.72;1.42;;;14.60;83.90;;;;;;5013423;28;20064;-64
2023/04/13 02:25:59;;;;;;;4.75;1.80;;;;;;;;;;5006247;28;20636;-64
2023/04/13 02:28:26;;;;;;;3.22;1.50;;;14.90;86.30;;;;;;4992401;28;20759;-63
2023/04/13 02:30:54;;;;;;;3.13;1.30;;;;;;;;;;5013612;28;20181;-63
2023/04/13 02:33:20;;;;;;;3.50;1.60;;;14.90;83.50;;;;;;5012521;28;20553;-63
2023/04/13 02:35:49;;;;;;;3.90;1.58;;;14.70;82.20;;;;;;5006535;28;20112;-64
2023/04/13 02:38:16;;;;;;;2.50;1.33;;;;;;;;;;5009570;28;20480;-63
2023/04/13 02:40:42;;;;;;;3.58;1.65;;;15.00;86.10;;;;;;5011610;28;20046;-64
2023/04/13 02:43:08;;;;;;;4.25;1.50;;;14.90;86.40;;;;;;4979923;28;20192;-63
2023/04/13 02:45:35;;;;;;;3.83;1.45;;;;;;;;;;5001613;28;22100;-63
2023/04/13 02:48:01;;;;;;;3.33;1.20;;;14.80;86.30;;;;;;5006779;28;20129;-63
2023/04/13 02:50:27;;;;;;;4.00;1.67;;;;;;;;;;5007774;28;20459;-63
2023/04/13 02:52:53;;;;;;;3.60;1.10;;;14.90;85.60;;;;;;5011929;28;20104;-60
2023/04/13 02:55:19;;;;;;;6.18;1.75;;;14.80;86.50;;;;;;5002981;28;20129;-61
2023/04/13 02:57:45;;;;;;;3.65;1.40;;;14.90;86.50;;;;;;5010197;28;20046;-61
2023/04/13 03:00:12;;;;;;;5.15;1.52;;;15.00;86.50;;;;;;5007566;28;20189;-61
2023/04/13 03:02:38;;;;;;;3.35;1.50;;;14.90;86.60;;;;;;5012442;28;20045;-61
2023/04/13 03:05:05;;;;;;;5.20;1.63;;;;;;;;;;5010948;28;20049;-62
2023/04/13 03:07:35;;;;;;;5.25;1.70;;;14.80;83.60;;;;;;5011337;28;20133;-61
2023/04/13 03:10:03;;;;;;;4.93;1.50;;;;;;;;;;4989816;28;20042;-61
2023/04/13 03:12:32;;;;;;;3.75;1.40;;;14.80;86.80;;;;;;5010107;28;20499;-61
2023/04/13 03:15:07;;;;;;;2.67;1.40;;;;;;;;;;5011662;28;20050;-61
2023/04/13 03:17:33;;;;;;;3.58;1.60;;;;;;;;;;5022523;28;20050;-61
2023/04/13 03:19:59;;;;;;;3.53;1.45;;;14.80;87.00;;;;;;5005628;28;20121;-61
2023/04/13 03:22:24;;;;;;;3.75;1.63;;;14.60;86.90;;;;;;5013268;28;20527;-60
2023/04/13 03:24:51;;;;;;;2.67;1.13;;;;;;;;;;5013192;28;20042;-62
2023/04/13 03:27:17;;;;;;;3.05;1.40;;;14.60;87.00;;;;;;5010648;28;20487;-61
2023/04/13 03:29:43;;;;;;;4.97;1.63;;;14.70;85.80;;;;;;5012460;28;20053;-61
2023/04/13 03:32:08;;;;;;;2.78;1.42;;;14.80;86.20;;;;;;5002875;28;20049;-61
2023/04/13 03:34:34;;;;;;;4.47;1.60;;;14.80;87.10;;;;;;5014668;28;20111;-61
2023/04/13 03:37:00;;;;;;;4.07;1.50;;;14.60;87.00;;;;;;5013034;28;20080;-61
2023/04/13 03:39:26;;;;;;;3.40;1.50;;;14.80;87.10;;;;;;5007963;28;20052;-63
2023/04/13 03:41:52;;;;;;;4.72;1.70;;;;;;;;;;5007448;28;20038;-64
2023/04/13 03:44:18;;;;;;;4.45;1.50;;;14.80;87.10;;;;;;5011126;28;20072;-64
2023/04/13 03:46:44;;;;;;;5.07;1.60;;;;;;;;;;5005533;28;21472;-60
2023/04/13 03:49:11;;;;;;;4.45;1.70;;;14.50;83.80;;;;;;5010419;28;20096;-61
2023/04/13 03:51:37;;;;;;;3.40;1.40;;;14.80;87.10;;;;;;5004386;28;20091;-63
2023/04/13 03:54:03;;;;;;;3.85;1.70;;;14.80;83.10;;;;;;5010276;28;20058;-64
2023/04/13 03:56:29;;;;;;;4.07;1.70;;;14.80;83.60;;;;;;5010370;28;20629;-62
2023/04/13 03:58:55;;;;;;;3.75;1.70;;;14.90;87.40;;;;;;5011314;28;20104;-64
2023/04/13 04:01:22;;;;;;;2.50;1.48;;;;;;;;;;5006070;28;20034;-64
2023/04/13 04:03:48;;;;;;;3.47;1.63;;;;;;;;;;5009021;28;20061;-61
2023/04/13 04:06:14;;;;;;;4.15;1.88;;;;;;;;;;5012404;28;20034;-61
2023/04/13 04:08:42;;;;;;;4.03;1.60;;;14.70;87.50;;;;;;4996563;28;20042;-61
2023/04/13 04:11:07;;;;;;;3.38;1.65;;;14.80;87.60;;;;;;5005238;28;20042;-61
2023/04/13 04:13:34;;;;;;;3.80;1.60;;;;;;;;;;5003006;28;20116;-61
2023/04/13 04:16:00;;;;;;;3.53;1.52;;;14.80;84.90;;;;;;5009855;28;20038;-62
2023/04/13 04:18:26;;;;;;;1.88;1.20;;;;;;;;;;5008959;28;20381;-61
2023/04/13 04:20:53;;;;;;;2.45;1.10;;;14.90;87.80;;;;;;4997355;28;20061;-61
2023/04/13 04:23:19;;;;;;;2.88;1.20;;;;;;;;;;5005116;28;20399;-62
2023/04/13 04:25:45;;;;;;;3.25;1.38;;;;;;;;;;5005933;28;20062;-61
2023/04/13 04:28:14;;;;;;;4.50;1.55;;;14.40;86.50;;;;;;5016757;28;20450;-62
2023/04/13 04:30:40;;;;;;;3.70;1.27;;;15.00;87.70;;;;;;4997260;28;20120;-62
2023/04/13 04:33:06;;;;;;;2.63;1.30;;;14.80;87.70;;;;;;5012768;28;20126;-63
2023/04/13 04:35:32;;;;;;;3.33;1.20;;;14.90;87.70;;;;;;5009743;28;20104;-61
2023/04/13 04:38:05;;;;;;;2.95;1.10;;;;;;;;;;5013864;28;20057;-62
2023/04/13 04:40:34;;;;;;;3.00;1.17;;;;;;;;;;5012472;28;20173;-61
2023/04/13 04:43:00;;;;;;;1.98;1.17;;;;;;;;;;4999401;28;20042;-61
2023/04/13 04:45:26;;;;;;;2.88;0.80;;;14.40;87.20;;;;;;5014416;28;20125;-61
2023/04/13 04:47:56;;;;;;;3.70;1.30;;;14.90;87.90;;;;;;5014824;28;20077;-61
2023/04/13 04:50:22;;;;;;;2.42;1.05;;;14.70;87.60;;;;;;5010297;28;20113;-60
2023/04/13 04:52:48;;;;;;;2.80;1.13;;;14.80;85.90;;;;;;5001928;28;20168;-61
2023/04/13 04:55:13;;;;;;;3.42;1.02;;;14.80;87.80;;;;;;4988701;28;20041;-61
2023/04/13 04:57:39;;;;;;;1.27;0.70;;;15.10;88.00;;;;;;5013194;28;20092;-61
2023/04/13 05:00:14;;;;;;;2.53;0.90;;;;;;;;;;4996535;28;20104;-61
2023/04/13 05:02:40;;;;;;;2.85;1.10;;;14.80;87.70;;;;;;5008388;28;20052;-61
2023/04/13 05:05:07;;;;;;;2.03;0.80;;;;;;;;;;5027350;28;20050;-62
2023/04/13 05:07:34;;;;;;;1.85;0.75;;;;;;;;;;5015806;28;20089;-62
2023/04/13 05:09:59;;;;;;;2.20;1.00;;;14.90;87.50;;;;;;5014158;28;20372;-61
2023/04/13 05:12:25;;;;;;;1.80;1.00;;;14.90;87.80;;;;;;5013904;28;20183;-61
2023/04/13 05:14:51;;;;;;;2.15;1.10;;;;;;;;;;5001185;28;20122;-61
2023/04/13 05:17:17;;;;;;;4.15;0.88;;;;;;;;;;5015493;28;20042;-61
2023/04/13 05:19:44;;;;;;;2.88;0.93;;;;;;;;;;4998318;28;20042;-61
2023/04/13 05:22:11;;;;;;;1.80;0.73;;;15.00;87.00;;;;;;4996010;28;20050;-61
2023/04/13 05:24:38;;;;;;;2.53;0.82;;;15.20;87.80;;;;;;4997305;28;20061;-62
2023/04/13 05:27:04;;;;;;;2.38;0.98;;;14.70;87.50;;;;;;4995119;28;20062;-61
2023/04/13 05:29:32;;;;;;;2.88;1.23;;;14.60;87.40;;;;;;4994442;28;20058;-62
2023/04/13 05:31:58;;;;;;;2.70;0.85;;;;;;;;;;5007336;28;20120;-62
2023/04/13 05:34:24;;;;;;;2.42;0.90;;;14.90;87.60;;;;;;5005641;28;20050;-63
2023/04/13 05:36:52;;;;;;;2.95;1.00;;;;;;;;;;5012223;28;20049;-64
2023/04/13 05:39:19;;;;;;;2.53;0.93;;;;;;;;;;5013931;28;20057;-65
2023/04/13 05:41:45;;;;;;;2.33;0.85;;;15.20;87.10;;;;;;5009814;28;20062;-63
2023/04/13 05:44:11;;;;;;;2.22;1.10;;;15.40;85.40;;;;;;5010435;28;20096;-63
2023/04/13 05:46:36;;;;;;;1.10;0.60;;;15.40;87.70;;;;;;5008018;28;20065;-64
2023/04/13 05:49:03;;;;;;;2.53;0.90;;;;;;;;;;4990716;28;20058;-64
2023/04/13 05:51:31;;;;;;;4.25;1.08;;;15.40;87.60;;;;;;4994212;28;20108;-65
2023/04/13 05:53:58;;;;;;;1.60;0.80;;;;;;;;;;5011235;28;20496;-62
2023/04/13 05:56:28;;;;;;;3.65;1.02;;;15.20;86.70;;;;;;4982167;28;20136;-62
2023/04/13 05:58:54;;;;;;;2.72;1.05;;;;;;;;;;5013387;28;20128;-63
2023/04/13 06:01:22;;;;;;;2.65;1.10;;;15.70;87.50;;;;;;5010688;28;20046;-62
2023/04/13 06:03:48;;;;;;;2.97;0.90;;;;;;;;;;5011657;28;20053;-63
2023/04/13 06:06:16;;;;;;;3.42;1.30;;;;;;;;;;5003520;28;20086;-64
2023/04/13 06:08:42;;;;;;;4.45;1.10;;;16.00;85.00;;;;;;5009838;28;20400;-62
2023/04/13 06:11:09;;;;;;;4.07;1.30;;;;;;;;;;5009260;28;20041;-65
2023/04/13 06:13:35;;;;;;;2.42;1.20;;;;;;;;;;5011585;28;20053;-65
2023/04/13 06:16:01;;;;;;;2.13;1.30;;;16.40;86.40;;;;;;5006812;28;20049;-65
2023/04/13 06:18:27;;;;;;;3.30;1.20;;;;;;;;;;5007698;28;20484;-64
2023/04/13 06:20:53;;;;;;;2.85;1.10;;;;;;;;;;5028215;28;20046;-64
2023/04/13 06:23:19;;;;;;;2.22;1.20;;;16.70;85.70;;;;;;5004322;28;20050;-63
2023/04/13 06:25:45;;;;;;;2.67;1.20;;;17.10;86.00;;;;;;4983713;28;20385;-62
2023/04/13 06:28:14;;;;;;;2.80;1.23;;;16.80;85.60;;;;;;5001454;28;20121;-63
2023/04/13 06:30:40;;;;;;;2.65;1.50;;;;;;;;;;5012999;28;20041;-63
2023/04/13 06:33:06;;;;;;;3.33;1.38;;;17.10;85.40;;;;;;5005776;28;20042;-64
2023/04/13 06:35:32;;;;;;;2.13;1.20;;;17.00;84.30;;;;;;5009327;28;20061;-64
2023/04/13 06:38:01;;;;;;;3.70;1.30;;;17.10;81.20;;;;;;5011962;28;20038;-64
2023/04/13 06:40:27;;;;;;;2.10;1.08;;;17.20;85.30;;;;;;5003767;28;20061;-63
2023/04/13 06:42:53;;;;;;;2.67;1.10;;;17.40;81.90;;;;;;5000396;28;20431;-63
2023/04/13 06:45:19;;;;;;;3.72;1.48;;;17.30;81.80;;;;;;4993112;28;20065;-63
2023/04/13 06:47:45;;;;;;;3.88;1.20;;;17.40;84.70;;;;;;5017229;28;20514;-63
2023/04/13 06:50:14;;;;;;;3.45;1.50;;;17.30;84.40;;;;;;5010021;28;20058;-67
2023/04/13 06:52:42;;;;;;;3.70;1.63;;;17.40;81.90;;;;;;5012416;28;20054;-66
2023/04/13 06:55:08;;;;;;;2.95;1.33;;;;;;;;;;5011348;28;20045;-65
2023/04/13 06:57:34;;;;;;;4.53;1.50;;;;;;;;;;5001407;28;20066;-65
2023/04/13 07:00:00;;;;;;;4.28;1.42;;;17.50;84.70;;;;;;4995987;28;20042;-64
2023/04/13 07:02:25;;;;;;;4.97;1.67;;;17.50;81.40;;;;;;4993588;28;20046;-65
2023/04/13 07:04:51;;;;;;;4.97;1.30;;;17.60;82.50;;;;;;4993508;28;20133;-63
2023/04/13 07:07:17;;;;;;;3.35;1.50;;;17.30;84.30;;;;;;4992204;28;20164;-64
2023/04/13 07:09:43;;;;;;;4.18;1.40;;;17.40;80.90;;;;;;4998656;28;20085;-65
2023/04/13 07:12:10;;;;;;;4.40;1.45;;;17.50;84.20;;;;;;5002775;28;20038;-66
2023/04/13 07:14:36;;;;;;;3.72;1.63;;;17.80;84.30;;;;;;4992648;28;20562;-66
2023/04/13 07:17:02;;;;;;;4.18;1.60;;;;;;;;;;4992461;28;20457;-67
2023/04/13 07:19:29;;;;;;;3.65;1.40;;;;;;;;;;5006277;28;20050;-67
2023/04/13 07:21:56;;;;;;;3.30;1.58;;;17.60;84.40;;;;;;5005463;28;20052;-62
2023/04/13 07:24:22;;;;;;;4.15;1.40;;;17.40;81.80;;;;;;5013151;28;20404;-62
2023/04/13 07:26:48;;;;;;;3.10;1.40;;;;;;;;;;4986958;28;20050;-65
2023/04/13 07:29:16;;;;;;;2.80;1.40;;;17.40;84.70;;;;;;4998631;28;20055;-62
2023/04/13 07:31:42;;;;;;;4.93;2.00;;;;;;;;;;5003043;28;20397;-67
2023/04/13 07:34:08;;;;;;;4.30;1.60;;;17.10;84.80;;;;;;5002472;28;20049;-62
2023/04/13 07:36:34;;;;;;;5.30;1.50;;;17.20;82.40;;;;;;5001394;28;20038;-66
2023/04/13 07:39:00;;;;;;;4.38;1.42;;;;;;;;;;5000148;28;20050;-63
2023/04/13 07:41:26;;;;;;;4.60;1.70;;;;;;;;;;4986667;28;20493;-63
2023/04/13 07:43:52;;;;;;;4.75;1.70;;;;;;;;;;4998684;28;20045;-63
2023/04/13 07:46:25;;;;;;;3.50;1.48;;;;;;;;;;5012753;28;20057;-61
2023/04/13 07:48:51;;;;;;;4.70;1.60;;;;;;;;;;5010214;28;20392;-62
2023/04/13 07:51:17;;;;;;;5.32;1.75;;;17.00;84.90;;;;;;5011730;28;20116;-62
2023/04/13 07:53:43;;;;;;;6.97;1.88;;;;;;;;;;5012282;28;20136;-67
2023/04/13 07:56:10;;;;;;;2.58;1.60;;;;;;;;;;5011414;28;20053;-62
2023/04/13 07:58:36;;;;;;;4.88;1.42;;;17.00;84.90;;;;;;5010637;28;20553;-62
2023/04/13 08:01:02;;;;;;;6.30;2.25;;;17.00;83.50;;;;;;5007992;28;20081;-62
2023/04/13 08:03:32;;;;;;;5.35;2.05;;;16.90;85.00;;;;;;4992090;28;20054;-62
2023/04/13 08:05:57;;;;;;;4.32;1.70;;;16.70;85.10;;;;;;5005951;28;20495;-62
2023/04/13 08:08:23;;;;;;;3.83;1.42;;;16.80;85.30;;;;;;5012052;28;20153;-63
2023/04/13 08:10:49;;;;;;;3.45;1.60;;;16.70;84.80;;;;;;5005566;28;20057;-63
2023/04/13 08:13:15;;;;;;;4.50;1.98;;;16.80;85.30;;;;;;4985524;28;20046;-64
2023/04/13 08:15:42;;;;;;;7.30;1.73;;;;;;;;;;5012195;28;20050;-61
2023/04/13 08:18:08;;;;;;;5.43;1.95;;;;;;;;;;5009993;28;20129;-63
2023/04/13 08:20:34;;;;;;;5.03;1.83;;;16.80;83.20;;;;;;5010479;28;20096;-64
2023/04/13 08:23:00;;;;;;;6.00;1.80;;;17.10;85.40;;;;;;5009503;28;20085;-61
2023/04/13 08:25:26;;;;;;;4.03;1.50;;;16.90;85.20;;;;;;5012217;28;20395;-62
2023/04/13 08:27:52;;;;;;;4.95;1.48;;;;;;;;;;5009517;28;20061;-65
2023/04/13 08:30:18;;;;;;;5.38;1.60;;;17.20;85.10;;;;;;5003889;28;20050;-62
2023/04/13 08:32:45;;;;;;;5.40;1.73;;;;;;;;;;5010827;28;20396;-62
2023/04/13 08:35:11;;;;;;;6.25;1.55;;;17.00;85.10;;;;;;5012499;28;20054;-64
2023/04/13 08:37:38;;;;;;;14.68;1.85;;;17.10;81.10;;;;;;5009003;28;20129;-64
2023/04/13 08:40:10;;;;;;;5.63;1.40;;;17.10;85.10;;;;;;5003433;28;20056;-65
2023/04/13 08:42:36;;;;;;;5.30;1.58;;;17.10;85.10;;;;;;5012241;28;20418;-64
2023/04/13 08:45:03;;;;;;;4.47;1.48;;;16.90;85.20;;;;;;5012209;28;20129;-65
2023/04/13 08:47:28;;;;;;;5.65;1.98;;;16.70;85.20;;;;;;5011138;28;20077;-65
2023/04/13 08:49:58;;;;;;;3.53;1.27;;;16.90;80.80;;;;;;5009442;28;20082;-64
2023/04/13 08:52:24;;;;;;;3.92;1.42;;;17.00;85.40;;;;;;5011478;28;20041;-65
2023/04/13 08:54:52;;;;;;;4.88;1.42;;;16.80;82.20;;;;;;5011123;28;20042;-65
2023/04/13 08:57:18;;;;;;;4.70;1.40;;;16.80;85.40;;;;;;5005322;28;20049;-64
2023/04/13 08:59:44;;;;;;;5.20;1.60;;;;;;;;;;5009986;28;20096;-62
2023/04/13 09:02:10;;;;;;;3.83;1.35;;;17.00;85.40;;;;;;5014774;28;20046;-64
2023/04/13 09:04:39;;;;;;;3.97;1.30;;;;;;;;;;5012409;28;20393;-62
2023/04/13 09:07:06;;;;;;;4.60;1.67;;;;;;;;;;5013984;28;20042;-64
2023/04/13 09:09:32;;;;;;;3.20;1.30;;;;;;;;;;5013040;28;20054;-64
2023/04/13 09:11:58;;;;;;;3.35;1.33;;;;;;;;;;5005420;28;20034;-63
2023/04/13 09:14:24;;;;;;;4.45;1.45;;;17.00;83.80;;;;;;5003491;28;20041;-64
2023/04/13 09:16:50;;;;;;;4.53;1.60;;;17.00;85.00;;;;;;5013750;28;20465;-63
2023/04/13 09:19:16;;;;;;;4.13;1.20;;;;;;;;;;5014169;28;20603;-63
2023/04/13 09:21:43;;;;;;;4.75;1.45;;;17.00;81.40;;;;;;5015147;28;20050;-62
2023/04/13 09:24:09;;;;;;;3.42;1.40;;;17.00;83.90;;;;;;5008116;28;20118;-62
2023/04/13 09:26:41;;;;;;;3.83;1.30;;;16.90;84.00;;;;;;4995869;28;20062;-63
2023/04/13 09:29:09;;;;;;;5.00;1.50;;;17.00;83.30;;;;;;4994828;28;20050;-62
2023/04/13 09:31:38;;;;;;;5.15;1.30;;;17.00;85.30;;;;;;5012689;28;20842;-64
2023/04/13 09:34:05;;;;;;;3.60;1.23;;;17.00;85.30;;;;;;5012489;28;20466;-62
2023/04/13 09:36:31;;;;;;;3.10;1.45;;;16.70;85.30;;;;;;5012816;28;20396;-62
2023/04/13 09:38:58;;;;;;;4.38;1.20;;;;;;;;;;5014503;28;20046;-63
2023/04/13 09:41:39;;;;;;;3.72;1.10;;;17.00;81.10;;;;;;5012503;28;20484;-64
2023/04/13 09:44:16;;;;;;;3.08;1.30;;;;;;;;;;5013074;28;20133;-64
2023/04/13 09:46:43;;;;;;;4.55;1.33;;;;;;;;;;5012580;28;20101;-62
2023/04/13 09:49:09;;;;;;;3.20;1.10;;;16.90;82.50;;;;;;4984210;28;20042;-62
2023/04/13 09:51:38;;;;;;;2.33;0.90;;;17.10;82.60;;;;;;4996791;28;22215;-62
2023/04/13 09:54:07;;;;;;;2.72;0.93;;;;;;;;;;5011656;28;20111;-64
2023/04/13 09:56:51;;;;;;;3.78;1.20;;;17.30;83.10;;;;;;5014419;28;20411;-62
2023/04/13 09:59:24;;;;;;;2.83;1.00;;;;;;;;;;5010308;28;20569;-63
2023/04/13 10:01:50;;;;;;;4.82;1.00;;;17.10;82.70;;;;;;5008398;28;20435;-64
2023/04/13 10:04:16;;;;;;;4.15;1.13;;;;;;;;;;4992460;28;20129;-63
2023/04/13 10:06:43;;;;;;;3.45;0.90;;;;;;;;;;5013306;28;20041;-62
2023/04/13 10:09:09;;;;;;;7.25;0.85;;;;;;;;;;5012899;28;20054;-63
2023/04/13 10:11:37;;;;;;;3.88;1.00;;;17.40;86.40;;;;;;5011712;28;20153;-62
2023/04/13 10:14:08;;;;;;;26.75;5.65;;;17.60;86.40;;;;;;5008810;28;20400;-62
2023/04/13 10:17:07;;;;;;;40.97;8.98;;;17.80;82.30;;;;;;4997777;28;20053;-62
2023/04/13 10:19:45;;;;;;;26.48;7.95;;;17.20;85.90;;;;;;5002249;28;20073;-62
2023/04/13 10:22:11;;;;;;;35.08;7.40;;;;;;;;;;4981930;28;20057;-62
2023/04/13 10:24:38;;;;;;;23.30;5.70;;;17.60;86.00;;;;;;5011952;28;20128;-63
2023/04/13 10:27:17;;;;;;;17.88;5.68;;;17.70;81.50;;;;;;4996243;28;20112;-61
2023/04/13 10:29:43;;;;;;;20.20;4.95;;;17.50;85.80;;;;;;5008178;28;20065;-63
2023/04/13 10:32:19;;;;;;;18.80;5.00;;;17.30;85.50;;;;;;5005902;28;20038;-65
2023/04/13 10:34:46;;;;;;;26.80;5.15;;;;;;;;;;5008268;28;20056;-64
2023/04/13 10:37:26;;;;;;;18.48;4.70;;;17.50;81.70;;;;;;5010345;28;20049;-62
2023/04/13 10:40:05;;;;;;;15.27;3.88;;;17.50;81.60;;;;;;5011228;28;20054;-62
2023/04/13 10:42:45;;;;;;;11.50;3.38;;;17.50;81.80;;;;;;5013624;28;20435;-59
2023/04/13 10:45:25;;;;;;;11.32;3.30;;;17.30;85.80;;;;;;4994085;28;20046;-59
2023/04/13 10:47:52;;;;;;;11.07;2.92;;;17.40;84.40;;;;;;5013061;28;20133;-60
2023/04/13 10:50:22;;;;;;;8.60;3.03;;;17.40;85.90;;;;;;5012563;28;20046;-59
2023/04/13 10:52:56;;;;;;;9.20;2.80;;;17.40;81.40;;;;;;5014235;28;20046;-59
2023/04/13 10:55:26;;;;;;;6.20;2.30;;;17.20;80.90;;;;;;5012365;28;20484;-62
2023/04/13 10:57:53;;;;;;;6.82;2.58;;;;;;;;;;5012892;28;20496;-60
2023/04/13 11:00:22;;;;;;;7.50;2.30;;;17.50;85.70;;;;;;4992808;28;20043;-60
2023/04/13 11:02:49;;;;;;;7.10;2.08;;;;;;;;;;4993909;28;20061;-60
2023/04/13 11:05:21;;;;;;;4.75;1.60;;;17.40;81.00;;;;;;4994568;28;20043;-60
2023/04/13 11:07:48;;;;;;;7.60;1.80;;;;;;;;;;5006292;28;20056;-60
2023/04/13 11:10:15;;;;;;;4.55;1.58;;;17.20;85.50;;;;;;5013316;28;20045;-59
2023/04/13 11:12:50;;;;;;;6.30;1.60;;;17.50;81.40;;;;;;5006005;28;20062;-59
2023/04/13 11:15:25;;;;;;;7.85;1.58;;;17.50;85.60;;;;;;5012016;28;20072;-61
2023/04/13 11:17:58;;;;;;;5.28;1.15;;;17.30;82.30;;;;;;5010273;28;20428;-60
2023/04/13 11:20:31;;;;;;;4.97;1.33;;;17.80;81.40;;;;;;5012843;28;20046;-60
2023/04/13 11:22:57;;;;;;;5.95;1.45;;;;;;;;;;5011878;28;20038;-60
2023/04/13 11:25:23;;;;;;;4.05;1.30;;;17.60;84.80;;;;;;5011883;28;20257;-63
2023/04/13 11:27:59;;;;;;;4.53;0.95;;;17.40;85.50;;;;;;5011594;28;20104;-61
2023/04/13 11:30:26;;;;;;;4.45;1.20;;;;;;;;;;4995724;28;20042;-61
2023/04/13 11:32:54;;;;;;;3.20;1.10;;;17.60;85.70;;;;;;5011754;28;20045;-60
2023/04/13 11:35:21;;;;;;;2.88;0.85;;;17.20;85.50;;;;;;5012589;28;20041;-60
2023/04/13 11:37:51;;;;;;;3.63;0.90;;;17.50;85.70;;;;;;5011172;28;20042;-60
2023/04/13 11:40:24;;;;;;;2.30;0.75;;;17.70;85.80;;;;;;5013379;28;20407;-60
2023/04/13 11:42:55;;;;;;;2.33;0.80;;;17.50;82.60;;;;;;5012007;28;20053;-59
2023/04/13 11:45:23;;;;;;;2.67;1.23;;;17.60;85.70;;;;;;5012067;28;20050;-60
2023/04/13 11:47:49;;;;;;;4.88;1.45;;;17.80;83.80;;;;;;5005217;28;20050;-60
2023/04/13 11:50:16;;;;;;;5.18;1.58;;;17.60;85.60;;;;;;5010943;28;20502;-60
2023/04/13 11:52:43;;;;;;;3.45;0.93;;;17.70;85.60;;;;;;5008495;28;20487;-61
2023/04/13 11:55:09;;;;;;;2.85;1.02;;;17.70;81.60;;;;;;4994825;28;20053;-64
2023/04/13 11:57:35;;;;;;;4.72;1.13;;;;;;;;;;5008946;28;20395;-60
2023/04/13 12:00:09;;;;;;;3.25;1.10;;;17.60;85.30;;;;;;5007925;28;20042;-61
2023/04/13 12:02:39;;;;;;;5.13;0.98;;;;;;;;;;5009505;28;20053;-61
2023/04/13 12:05:06;;;;;;;5.00;1.10;;;;;;;;;;5006998;28;20599;-61
2023/04/13 12:07:32;;;;;;;5.03;1.20;;;17.60;85.70;;;;;;5010314;28;20050;-59
2023/04/13 12:09:58;;;;;;;4.88;1.25;;;;;;;;;;5006686;28;20076;-59
2023/04/13 12:12:25;;;;;;;5.18;1.33;;;;;;;;;;5006218;28;20038;-61
2023/04/13 12:14:57;;;;;;;8.85;1.85;;;17.50;82.30;;;;;;4993493;28;20086;-60
2023/04/13 12:17:34;;;;;;;5.97;1.40;;;;;;;;;;5006928;28;20451;-62
2023/04/13 12:20:00;;;;;;;3.35;1.10;;;17.60;82.60;;;;;;5004215;28;20050;-60
2023/04/13 12:22:40;;;;;;;4.70;1.13;;;17.70;82.70;;;;;;5004919;28;20089;-60
2023/04/13 12:25:16;;;;;;;4.60;1.10;;;17.60;81.80;;;;;;4997333;28;20125;-62
2023/04/13 12:27:41;;;;;;;3.47;1.00;;;17.50;85.70;;;;;;5007801;28;20419;-61
2023/04/13 12:30:11;;;;;;;7.82;1.40;;;;;;;;;;5005898;28;20042;-61
2023/04/13 12:32:45;;;;;;;6.90;1.30;;;17.50;82.30;;;;;;4992143;28;20041;-62
2023/04/13 12:35:12;;;;;;;4.82;1.27;;;17.50;85.90;;;;;;5011105;28;20107;-60
2023/04/13 12:37:41;;;;;;;4.60;1.08;;;17.50;81.20;;;;;;5004157;28;20054;-62
2023/04/13 12:40:11;;;;;;;5.88;1.40;;;17.80;86.00;;;;;;5011335;28;20045;-59
2023/04/13 12:42:37;;;;;;;5.43;1.60;;;;;;;;;;5010678;28;20057;-61
2023/04/13 12:45:04;;;;;;;4.53;1.23;;;17.80;85.40;;;;;;5013669;28;20446;-61
2023/04/13 12:47:30;;;;;;;4.35;1.17;;;17.30;85.70;;;;;;5012536;28;20041;-62
2023/04/13 12:49:56;;;;;;;5.03;1.55;;;;;;;;;;5014286;28;20041;-62
2023/04/13 12:52:22;;;;;;;6.05;1.55;;;17.70;85.90;;;;;;5013117;28;20064;-63
2023/04/13 12:54:48;;;;;;;22.45;2.88;;;17.50;85.80;;;;;;5007210;28;20041;-66
2023/04/13 12:57:16;;;;;;;15.38;2.03;;;17.60;85.70;;;;;;5012485;28;20040;-64
2023/04/13 12:59:42;;;;;;;8.63;1.55;;;17.50;84.40;;;;;;4996673;28;20127;-64
2023/04/13 13:02:08;;;;;;;8.68;1.60;;;17.70;85.90;;;;;;5013603;28;20061;-64
2023/04/13 13:04:34;;;;;;;11.63;1.63;;;;;;;;;;5013815;28;20049;-64
2023/04/13 13:07:01;;;;;;;5.10;1.45;;;;;;;;;;5010655;28;20038;-63
2023/04/13 13:09:27;;;;;;;5.03;1.65;;;;;;;;;;5015493;28;20396;-63
2023/04/13 13:11:53;;;;;;;6.97;1.42;;;17.70;85.20;;;;;;5001444;28;20061;-61
2023/04/13 13:14:22;;;;;;;10.55;1.80;;;17.40;85.90;;;;;;5014542;28;20042;-64
2023/04/13 13:16:51;;;;;;;8.60;1.88;;;17.00;85.70;;;;;;5013684;28;20050;-65
2023/04/13 13:19:17;;;;;;;6.60;1.92;;;;;;;;;;4997756;28;20057;-62
2023/04/13 13:21:43;;;;;;;6.95;1.60;;;17.10;83.60;;;;;;5012632;28;20046;-63
2023/04/13 13:24:09;;;;;;;10.10;1.60;;;;;;;;;;5015039;28;20046;-62
2023/04/13 13:26:35;;;;;;;5.55;1.50;;;17.50;84.00;;;;;;5015165;28;20054;-60
2023/04/13 13:29:02;;;;;;;6.18;1.75;;;17.40;86.10;;;;;;5013389;28;20085;-62